LiveATC.Net - Listen to live air traffic control over the Internet!


ICAO: UTDL  IATA: LBD   Airport: Khujand Airport
City: Khujand
Country: Tajikistan   Continent: Asia
UTDL METAR Weather: UTDL 272230Z 23002MPS 9999 FEW230 20/10 Q1010 88CLRD70 NOSIG RMK QFE720/0960
UTDL Flight Activity (FlightAware)
UTDL Gnd/Twr/App/ACC
Feed Status: UP   Listeners: 1
Listen right in your browser - requires Flash (in browser, requires Flash)
Click here to listen with your own player (launches your MP3 player)
UTDL Gnd/Twr/App/ACC Audio Archives
FacilityFrequency
Dushanbe ACC133.100
Khujand Approach124.800
Khujand Ground121.900
Khujand Tower120.300


NOTICE

Unauthorized use prohibited. See LiveATC.net Terms of Service


Find LiveATC Audio Streams


Airport/ARTCC Code

Frequency Search
(e.g., 124.400, 128.75)
Site-wide search
 


Browse LiveATC Feeds
LiveATC Coverage Map
Top 50 LiveATC Feeds
Bad Weather Areas

LiveATC FAQ
Offer a LiveATC Feed
Contact LiveATC.net
Press Inquiries

LiveATC on iPhone
LiveATC on Android

Windows Phone
Windows 8/10

LiveATC Mobile
(Mobile browser)

ATC Audio Archives
Interesting Recordings

LiveATC Forums


Home Page
About LiveATC.net
Make a Donation
LiveATC Store

Terms of Use
Privacy Policy

Canadian Air Freqs

AIRMETs/SIGMETs

FAA Airport Status
Nat'l Airspace Status
Arrival Demand Charts


Server Software By:
Icecast.org
Liquidsoap